Happy Valentine's Day! 

Flight Track Log - Related Links

Times and Time Zones

All times are in EDT time to prevent confusion due to time zone crossing. See the UAL906 flight status page for this flight to view local times or setup timezone preferences in your user account.


Time Position Orientation Groundspeed Altitude Reporting Facility
EDT Latitude Longitude Course Direction KTS MPH feet Rate Location/Type
Sat 07:08:55 AM 50.0360 8.5480 90° East 115 132  Level FlightAware ADS-B
Sat 07:09:15 AM 50.0410 8.5690 70° East 175 201 1,500 Level FlightAware ADS-B
Sat 07:09:35 AM 50.0470 8.5940 69° East 182 209 1,000 2,864 Climbing FlightAware ADS-B
Sat 07:09:59 AM 50.0540 8.6240 70° East 181 208 2,100 2,455 Climbing FlightAware ADS-B
Sat 07:10:19 AM 50.0590 8.6480 72° East 187 215 2,800 2,250 Climbing FlightAware ADS-B
Sat 07:10:39 AM 50.0650 8.6740 70° East 191 220 3,600 1,784 Climbing FlightAware ADS-B
Sat 07:10:56 AM 50.0700 8.6970 71° East 209 241 3,900 1,000 Climbing FlightAware ADS-B
Sat 07:11:27 AM 50.0870 8.7250 47° Northeast 240 276 4,400 1,500 Climbing FlightAware ADS-B
Sat 07:11:36 AM 50.1040 8.7370 24° Northeast 250 288 4,900 2,483 Climbing FlightAware ADS-B
Sat 07:11:56 AM 50.1250 8.7490 20° North 259 298 5,600 2,250 Climbing FlightAware ADS-B
Sat 07:12:16 AM 50.1490 8.7630 20° North 265 305 6,400 2,294 Climbing FlightAware ADS-B
Sat 07:12:30 AM 50.1660 8.7680 11° North 267 307 6,900 2,294 Climbing FlightAware ADS-B
Sat 07:12:50 AM 50.1860 8.7580 342° North 258 297 7,700 2,400 Climbing FlightAware ADS-B
Sat 07:12:55 AM 50.1910 8.7510 318° Northwest 264 304 7,900 2,400 Climbing FlightAware ADS-B
Sat 07:13:05 AM 50.2000 8.7350 311° West 259 298 8,300 2,400 Climbing FlightAware ADS-B
Sat 07:13:25 AM 50.2150 8.7060 309° West 268 308 9,100 2,400 Climbing FlightAware ADS-B
Sat 07:13:45 AM 50.2300 8.6740 306° West 273 314 9,900 1,300 Climbing FlightAware ADS-B
Sat 07:14:25 AM 50.2630 8.6080 308° West 315 362 10,400 825 Climbing FlightAware ADS-B
Sat 07:15:05 AM 50.3030 8.5300 309° West 360 414 11,000 1,521 Climbing FlightAware ADS-B
Sat 07:15:36 AM 50.3350 8.4700 310° West 366 421 12,200 2,400 Climbing FlightAware ADS-B
Sat 07:16:10 AM 50.3720 8.3970 308° West 366 421 13,600 2,351 Climbing FlightAware ADS-B
Sat 07:16:50 AM 50.4150 8.3130 309° West 373 429 15,100 2,240 Climbing FlightAware ADS-B
Sat 07:17:25 AM 50.4540 8.2370 309° West 384 442 16,400 2,123 Climbing FlightAware ADS-B
Sat 07:17:55 AM 50.4870 8.1680 307° West 390 449 17,400 1,938 Climbing FlightAware ADS-B
Sat 07:18:30 AM 50.5230 8.0890 306° West 393 452 18,500 1,760 Climbing FlightAware ADS-B
Sat 07:19:10 AM 50.5660 7.9950 306° West 398 458 19,600 1,579 Climbing FlightAware ADS-B
Sat 07:19:46 AM 50.6050 7.9100 306° West 405 466 20,500 1,662 Climbing FlightAware ADS-B
Sat 07:20:15 AM 50.6380 7.8370 305° West 414 476 21,400 1,688 Climbing FlightAware ADS-B
Sat 07:20:50 AM 50.6770 7.7530 306° West 418 481 22,300 1,360 Climbing FlightAware ADS-B
Sat 07:21:30 AM 50.7240 7.6490 306° West 426 490 23,100 1,520 Climbing FlightAware ADS-B
Sat 07:22:05 AM 50.7630 7.5630 306° West 424 488 24,200 1,477 Climbing FlightAware ADS-B
Sat 07:22:35 AM 50.7980 7.4850 305° West 434 499 24,700 1,200 Climbing FlightAware ADS-B
Sat 07:23:10 AM 50.8380 7.3980 306° West 442 509 25,500 1,360 Climbing FlightAware ADS-B
Sat 07:23:50 AM 50.8880 7.2850 305° West 447 514 26,400 1,286 Climbing FlightAware ADS-B
Sat 07:24:20 AM 50.9180 7.2040 300° West 447 514 27,000 1,100 Climbing FlightAware ADS-B
Sat 07:24:50 AM 50.9360 7.1100 287° West 454 522 27,500 1,292 Climbing FlightAware ADS-B
Sat 07:25:25 AM 50.9510 6.9980 282° West 451 519 28,400 1,114 Climbing FlightAware ADS-B
Sat 07:26:00 AM 50.9660 6.8850 282° West 459 528 28,800 845 Climbing FlightAware ADS-B
Sat 07:26:36 AM 50.9820 6.7590 281° West 466 536 29,400 930 Climbing FlightAware ADS-B
Sat 07:27:11 AM 50.9980 6.6420 282° West 471 542 29,900 845 Climbing FlightAware ADS-B
Sat 07:27:47 AM 51.0130 6.5210 281° West 474 545 30,400 971 Climbing FlightAware ADS-B
Sat 07:28:19 AM 51.0280 6.4040 282° West 475 547 31,000 1,000 Climbing FlightAware ADS-B
Sat 07:28:59 AM 51.0450 6.2710 282° West 474 545 31,600 1,167 Climbing FlightAware ADS-B
Sat 07:29:31 AM 51.0600 6.1590 282° West 468 539 32,400 1,304 Climbing FlightAware ADS-B
Sat 07:30:08 AM 51.0740 6.0370 280° West 463 533 33,100 1,029 Climbing FlightAware ADS-B
Sat 07:30:41 AM 51.0880 5.9250 281° West 462 532 33,600 696 Climbing FlightAware ADS-B
Sat 07:31:17 AM 51.1030 5.8070 281° West 463 533 33,900 353 Climbing FlightAware ADS-B
Sat 07:31:49 AM 51.1140 5.7110 280° West 455 524 34,000 88 Climbing FlightAware ADS-B
Sat 07:32:25 AM 51.1260 5.6120 281° West 451 519 34,000  Level FlightAware ADS-B
Sat 07:33:02 AM 51.1430 5.4690 281° West 450 518 34,000  Level FlightAware ADS-B
Sat 07:33:36 AM 51.1560 5.3570 281° West 450 518 34,000  Level FlightAware ADS-B
Sat 07:34:12 AM 51.1700 5.2390 281° West 450 518 34,000  Level FlightAware ADS-B
Sat 07:34:46 AM 51.1820 5.1310 280° West 450 518 34,000 -88 Level FlightAware ADS-B
Sat 07:35:20 AM 51.1913 5.0102 280° West 478 550 33,900  Descending FlightAware UK
Sat 07:35:20 AM 51.1950 5.0170 280° West 451 519 34,000 176 Climbing FlightAware ADS-B
Sat 07:35:54 AM 51.2080 4.9070 280° West 451 519 34,000 -167 Level FlightAware ADS-B
Sat 07:35:56 AM 51.2028 4.8901 280° West 1 1 33,900  Descending FlightAware UK
Sat 07:36:26 AM 51.2201 4.7995 280° West 480 552 34,000 167 Climbing FlightAware UK
Sat 07:36:32 AM 51.2220 4.7830 280° West 451 519 34,000  Level FlightAware ADS-B
Sat 07:37:08 AM 51.2350 4.6640 280° West 451 519 34,000  Level FlightAware ADS-B
Sat 07:37:42 AM 51.2470 4.5540 280° West 452 520 34,000  Level FlightAware ADS-B
Sat 07:38:18 AM 51.2600 4.4350 280° West 453 521 34,000  Level FlightAware ADS-B
Sat 07:38:50 AM 51.2720 4.3320 281° West 453 521 34,000  Level FlightAware ADS-B
Sat 07:39:24 AM 51.2840 4.2170 280° West 454 522 34,000  Level FlightAware ADS-B
Sat 07:40:02 AM 51.2970 4.0940 280° West 455 524 34,000  Level FlightAware ADS-B
Sat 07:40:38 AM 51.3100 3.9720 280° West 455 524 34,000  Level FlightAware ADS-B
Sat 07:41:11 AM 51.3220 3.8610 280° West 456 525 34,000  Level FlightAware ADS-B
Sat 07:41:43 AM 51.3323 3.7518 280° West 478 550 34,000  Level FlightAware UK
Sat 07:41:47 AM 51.3340 3.7400 280° West 457 526 34,000  Level FlightAware ADS-B
Sat 07:42:18 AM 51.3440 3.6450 280° West 457 526 34,000  Level FlightAware ADS-B
Sat 07:42:54 AM 51.3570 3.5170 279° West 458 527 34,000  Level FlightAware ADS-B
Sat 07:43:25 AM 51.3670 3.4160 279° West 459 528 34,000  Level FlightAware ADS-B
Sat 07:44:06 AM 51.3800 3.2820 279° West 459 528 34,000  Level FlightAware ADS-B
Sat 07:44:43 AM 51.3920 3.1660 279° West 461 531 34,000  Level FlightAware ADS-B
Sat 07:45:14 AM 51.4030 3.0540 279° West 462 532 34,000  Level FlightAware ADS-B
Sat 07:45:49 AM 51.4144 2.9286 279° West 480 552 34,000  Level FlightAware UK
Sat 07:45:53 AM 51.4150 2.9200 279° West 463 533 34,000  Level FlightAware ADS-B
Sat 07:46:26 AM 51.4260 2.8110 279° West 464 534 34,000  Level FlightAware ADS-B
Sat 07:47:03 AM 51.4370 2.6940 279° West 465 535 34,000  Level FlightAware ADS-B
Sat 07:47:34 AM 51.4477 2.5774 278° West 466 536 34,000  Level FlightAware ADS-B
Sat 07:48:12 AM 51.4600 2.4480 279° West 466 536 34,000  Level FlightAware ADS-B
Sat 07:48:48 AM 51.4710 2.3230 278° West 468 539 34,000  Level FlightAware ADS-B
Sat 07:49:24 AM 51.4820 2.2030 278° West 469 540 34,000  Level FlightAware ADS-B
Sat 07:49:56 AM 51.4920 2.0860 278° West 471 542 34,000  Level FlightAware ADS-B
Sat 07:50:33 AM 51.5030 1.9620 278° West 472 543 34,000  Level FlightAware ADS-B
Sat 07:51:08 AM 51.5130 1.8420 278° West 472 543 34,000  Level FlightAware ADS-B
Sat 07:51:44 AM 51.5240 1.7170 278° West 474 545 34,000  Level FlightAware ADS-B
Sat 07:52:09 AM 51.5318 1.6240 278° West 476 548 34,000  Level FlightAware ADS-B (EGHH / BOH)
Sat 07:52:41 AM 51.5409 1.5154 278° West 476 548 34,000  Level FlightAware ADS-B
Sat 07:53:11 AM 51.5493 1.4131 278° West 477 549 34,000  Level FlightAware ADS-B
Sat 07:53:42 AM 51.5577 1.3114 278° West 478 550 34,000  Level FlightAware ADS-B
Sat 07:54:18 AM 51.5690 1.1715 277° West 479 551 34,000  Level FlightAware ADS-B
Sat 07:54:50 AM 51.5777 1.0614 277° West 479 551 34,000  Level FlightAware ADS-B
Sat 07:55:31 AM 51.5891 0.9167 277° West 479 551 34,000  Level FlightAware ADS-B (LSXS)
Sat 07:56:10 AM 51.5987 0.7922 277° West 480 552 34,000  Level FlightAware ADS-B
Sat 07:57:03 AM 51.6138 0.5932 277° West 479 551 34,000  Level FlightAware ADS-B
Sat 07:57:34 AM 51.6220 0.4820 277° West 479 551 34,000  Level FlightAware ADS-B
Sat 07:58:06 AM 51.6304 0.3688 277° West 486 559 34,000  Level FlightAware UK
Sat 07:58:07 AM 51.6300 0.3710 277° West 480 552 34,000  Level FlightAware ADS-B
Sat 07:58:08 AM 51.6310 0.3604 279° West 479 551 34,000  Level FlightAware ADS-B (EGDM)
Sat 07:58:38 AM 51.6382 0.2615 277° West 481 554 34,000  Level FlightAware ADS-B (EGDM)
Sat 07:59:18 AM 51.6406 0.1137 272° West 482 555 34,000  Level FlightAware ADS-B (EGDM)
Sat 07:59:29 AM 51.6375 0.0722 263° West 481 554 34,000  Level FlightAware ADS-B
Sat 07:59:59 AM 51.6271 -0.0319 261° West 482 555 34,000  Level FlightAware ADS-B
Sat 08:00:29 AM 51.6169 -0.1233 260° West 482 555 34,000  Level FlightAware ADS-B (EGDM)
Sat 08:01:08 AM 51.6036 -0.2753 262° West 483 556 34,000  Level FlightAware ADS-B (EGDM)
Sat 08:01:31 AM 51.6039 -0.3435 270° West 482 555 34,000  Level FlightAware ADS-B (EGDM)
Sat 08:02:02 AM 51.6122 -0.4685 276° West 482 555 34,000  Level FlightAware ADS-B (EGDM)
Sat 08:02:38 AM 51.6210 -0.5942 276° West 482 555 34,000  Level FlightAware ADS-B
Sat 08:03:08 AM 51.6210 -0.5942 276° West 481 554 34,000  Level FlightAware ADS-B
Sat 08:03:46 AM 51.6377 -0.8376 276° West 481 554 34,000  Level FlightAware ADS-B
Sat 08:04:17 AM 51.6449 -0.9444 276° West 481 554 34,000  Level FlightAware ADS-B (EGDM)
Sat 08:05:13 AM 51.6577 -1.1387 276° West 481 554 34,000  Level FlightAware ADS-B (EGDM)
Sat 08:05:52 AM 51.6672 -1.2855 276° West 481 554 34,000  Level FlightAware ADS-B (EGDM)
Sat 08:06:23 AM 51.6741 -1.3918 276° West 481 554 34,000  Level FlightAware ADS-B (EGDM)
Sat 08:06:52 AM 51.6876 -1.4883 283° West 480 552 34,000  Level FlightAware ADS-B (EGDM)
Sat 08:06:55 AM 51.6849 -1.4747 108° East 478 550 34,000  Level FlightAware ADS-B
Sat 08:07:06 AM 51.6687 -1.3075 99° East 480 552 34,000  Level FlightAware ADS-B
Sat 08:07:24 AM 51.7180 -1.5953 286° West 476 548 34,000  Level FlightAware ADS-B (LSXS)
Sat 08:07:54 AM 51.7489 -1.6923 297° West 479 551 34,000  Level FlightAware ADS-B
Sat 08:07:59 AM 51.7538 -1.7078 297° West 475 547 34,000  Level FlightAware ADS-B (LSXS)
Sat 08:08:30 AM 51.7825 -1.7973 297° West 479 551 34,000  Level FlightAware ADS-B (EGDX / DGX)
Sat 08:09:01 AM 51.8120 -1.8892 297° West 480 552 34,000  Level FlightAware ADS-B (EGDX / DGX)
Sat 08:09:36 AM 51.8521 -2.0147 297° West 480 552 34,000  Level FlightAware ADS-B (EGDM)
Sat 08:09:39 AM 51.8561 -2.0272 297° West 478 550 34,000  Level FlightAware ADS-B
Sat 08:10:01 AM 51.8774 -2.0942 297° West 478 550 34,000  Level FlightAware ADS-B (EGHH / BOH)
Sat 08:10:25 AM 51.9004 -2.1667 297° West 482 555 34,000  Level FlightAware ADS-B (EGDX / DGX)
Sat 08:10:35 AM 51.9119 -2.2032 297° West 482 555 34,000  Level FlightAware ADS-B (EGDX / DGX)
Sat 08:10:54 AM 51.9119 -2.2032 297° West 483 556 34,000  Level FlightAware ADS-B (EGDX / DGX)
Sat 08:11:18 AM 51.9559 -2.3427 297° West 483 556 34,000  Level FlightAware ADS-B (EGCW)
Sat 08:11:36 AM 51.9119 -2.2032 117° Southeast 483 556 34,000  Level FlightAware ADS-B (EGDX / DGX)
Sat 08:11:43 AM 51.9810 -2.4225 297° West 483 556 34,000  Level FlightAware ADS-B (EGDX / DGX)
Sat 08:12:00 AM 51.9983 -2.4779 297° West 480 552 34,000  Level FlightAware ADS-B
Sat 08:12:11 AM 52.0086 -2.5108 297° West 483 556 34,000  Level FlightAware ADS-B
Sat 08:12:25 AM 52.0224 -2.5549 297° West 479 551 34,000  Level FlightAware ADS-B
Sat 08:12:55 AM 52.0529 -2.6529 297° West 484 557 34,000  Level FlightAware ADS-B (EGCW)
Sat 08:13:26 AM 52.0771 -2.7310 297° West 485 558 34,000  Level FlightAware ADS-B
Sat 08:13:34 AM 52.0924 -2.7803 297° West 481 554 34,000  Level FlightAware ADS-B
Sat 08:13:59 AM 52.1163 -2.8580 297° West 485 558 34,000  Level FlightAware ADS-B
Sat 08:14:22 AM 52.1411 -2.9388 297° West 483 556 34,000  Level FlightAware ADS-B
Sat 08:14:42 AM 52.1546 -2.9829 297° West 486 559 34,000  Level FlightAware ADS-B (EGDX / DGX)
Sat 08:14:49 AM 52.1614 -3.0051 297° West 486 559 34,000  Level FlightAware ADS-B (EGDX / DGX)
Sat 08:15:22 AM 52.2007 -3.1340 297° West 483 556 34,000  Level FlightAware ADS-B
Sat 08:15:42 AM 52.2205 -3.1992 296° West 484 557 34,000  Level FlightAware ADS-B
Sat 08:15:55 AM 52.2332 -3.2410 296° West 484 557 34,000  Level FlightAware ADS-B
Sat 08:16:15 AM 52.2529 -3.3064 296° West 485 558 34,000  Level FlightAware ADS-B
Sat 08:16:26 AM 52.2560 -3.3163 297° West 488 562 34,000  Level FlightAware ADS-B (EGCW)
Sat 08:16:56 AM 52.2945 -3.4443 296° West 485 558 34,000  Level FlightAware ADS-B
Sat 08:17:05 AM 52.3032 -3.4733 296° West 486 559 34,000  Level FlightAware ADS-B
Sat 08:17:17 AM 52.3150 -3.5127 296° West 486 559 34,000  Level FlightAware ADS-B
Sat 08:17:48 AM 52.3456 -3.6148 296° West 486 559 34,000  Level FlightAware ADS-B
Sat 08:18:20 AM 52.3769 -3.7200 296° West 489 563 34,000  Level FlightAware ADS-B
Sat 08:18:50 AM 52.4066 -3.8200 296° West 490 564 34,000  Level FlightAware ADS-B
Sat 08:19:20 AM 52.4358 -3.9195 296° West 491 565 34,000  Level FlightAware ADS-B
Sat 08:19:52 AM 52.4677 -4.0277 296° West 491 565 34,000  Level FlightAware ADS-B (EGCW)
Sat 08:20:22 AM 52.4974 -4.1294 296° West 492 566 34,000  Level FlightAware ADS-B (EGCW)
Sat 08:20:53 AM 52.5277 -4.2336 296° West 493 567 34,000  Level FlightAware ADS-B (EGCW)
Sat 08:21:24 AM 52.5571 -4.3350 295° West 493 567 34,000  Level FlightAware ADS-B (EGCW)
Sat 08:21:54 AM 52.5863 -4.4360 295° West 494 568 34,000  Level FlightAware ADS-B (EGCW)
Sat 08:22:24 AM 52.6157 -4.5383 295° West 494 568 34,000  Level FlightAware ADS-B
Sat 08:23:02 AM 52.6534 -4.6698 295° West 496 571 34,000  Level FlightAware ADS-B (EGCW)
Sat 08:23:34 AM 52.6838 -4.7772 295° West 496 571 34,000  Level FlightAware ADS-B
Sat 08:24:08 AM 52.7121 -4.8769 295° West 497 572 34,000  Level FlightAware ADS-B (EGCW)
Sat 08:24:59 AM 52.6948 -4.8157 115° Southeast 497 572 34,000  Level FlightAware ADS-B
Sat 08:25:31 AM 52.7970 -5.1791 295° West 497 572 34,000  Level FlightAware ADS-B
Sat 08:26:07 AM 52.8310 -5.3020 295° West 496 571 34,000  Level FlightAware ADS-B
Sat 08:26:25 AM 52.8176 -5.2530 114° Southeast 496 571 34,000 -120 Level FlightAware ADS-B
Sat 08:26:57 AM 52.8792 -5.4747 114° Southeast 486 559 33,900  Descending FlightAware UK
Sat 08:27:09 AM 52.8874 -5.5052 114° Southeast 496 571 34,000  Climbing FlightAware ADS-B
Sat 08:27:39 AM 52.9190 -5.6194 114° Southeast 488 562 33,900  Descending FlightAware UK
Sat 08:27:53 AM 52.9319 -5.6678 114° Southeast 496 571 34,000 118 Climbing FlightAware ADS-B
Sat 08:28:30 AM 52.9660 -5.7920 295° West 494 568 34,000  Level FlightAware ADS-B
Sat 08:28:58 AM 52.9924 -5.8903 294° West 495 570 34,000  Level FlightAware ADS-B
Sat 08:29:34 AM 53.0264 -6.0159 294° West 494 568 34,000  Level FlightAware ADS-B
Sat 08:30:13 AM 53.0618 -6.1481 294° West 494 568 34,000  Level FlightAware ADS-B
Sat 08:30:43 AM 53.0900 -6.2537 294° West 494 568 34,000  Level FlightAware ADS-B
Sat 08:31:15 AM 53.1193 -6.3638 294° West 495 570 34,000  Level FlightAware ADS-B
Sat 08:31:46 AM 53.1477 -6.4710 294° West 496 571 34,000  Level FlightAware ADS-B
Sat 08:32:16 AM 53.1733 -6.5684 294° West 497 572 34,000  Level FlightAware ADS-B
Sat 08:32:47 AM 53.2042 -6.6864 294° West 497 572 34,000  Level FlightAware ADS-B
Sat 08:33:17 AM 53.2293 -6.7829 294° West 498 573 34,000  Level FlightAware ADS-B
Sat 08:33:51 AM 53.2631 -6.9129 294° West 498 573 34,000  Level FlightAware ADS-B
Sat 08:34:21 AM 53.2900 -7.0167 294° West 488 562 34,000  Level FlightAware UK
Sat 08:34:29 AM 53.2812 -6.9832 294° West 497 572 34,000  Level FlightAware ADS-B
Sat 08:34:59 AM 53.3241 -7.1500 293° West 497 572 34,000  Level FlightAware ADS-B
Sat 08:35:30 AM 53.3522 -7.2604 293° West 497 572 34,000  Level FlightAware ADS-B
Sat 08:36:08 AM 53.3850 -7.3910 293° West 495 570 34,000  Level FlightAware ADS-B
Sat 08:36:21 AM 53.3976 -7.4392 294° West 495 570 34,000 -125 Level FlightAware ADS-B
Sat 08:36:56 AM 53.4297 -7.5656 294° West 488 562 33,900  Descending FlightAware UK
Sat 08:37:00 AM 53.4321 -7.5761 294° West 495 570 34,000 167 Climbing FlightAware ADS-B
Sat 08:37:32 AM 53.4594 -7.6853 293° West 493 567 34,000  Level FlightAware ADS-B
Sat 08:38:22 AM 53.5046 -7.8669 293° West 494 568 34,000  Level FlightAware ADS-B
Sat 08:38:53 AM 53.5312 -7.9742 293° West 495 570 34,000  Level FlightAware ADS-B
Sat 08:39:24 AM 53.5577 -8.0821 292° West 494 568 34,000 -95 Level FlightAware ADS-B
Sat 08:39:56 AM 53.5867 -8.2004 292° West 484 557 33,900  Descending FlightAware UK
Sat 08:40:03 AM 53.5922 -8.2235 292° West 494 568 34,000 154 Climbing FlightAware ADS-B
Sat 08:40:35 AM 53.6192 -8.3343 292° West 495 570 34,000 -67 Level FlightAware ADS-B
Sat 08:41:32 AM 53.6695 -8.5412 292° West 488 562 33,900  Descending FlightAware UK
Sat 08:41:32 AM 53.6694 -8.5423 292° West 495 570 34,000  Climbing FlightAware ADS-B
Sat 08:42:02 AM 53.6950 -8.6484 292° West 486 559 33,900  Descending FlightAware UK
Sat 08:42:05 AM 53.6950 -8.6500 292° West 492 566 34,000 154 Climbing FlightAware ADS-B
Sat 08:42:41 AM 53.7260 -8.7780 292° West 492 566 34,000  Level FlightAware ADS-B
Sat 08:43:17 AM 53.7550 -8.9030 291° West 492 566 34,000  Level FlightAware ADS-B
Sat 08:43:51 AM 53.7850 -9.0300 292° West 493 567 34,000  Level FlightAware ADS-B
Sat 08:44:33 AM 53.8210 -9.1820 292° West 492 566 34,000  Level FlightAware ADS-B
Sat 08:45:07 AM 53.8490 -9.3040 291° West 492 566 34,000  Level FlightAware ADS-B
Sat 08:45:39 AM 53.8730 -9.4090 291° West 491 565 34,000  Level FlightAware ADS-B
Sat 08:46:24 AM 53.9100 -9.5690 291° West 490 564 34,000  Level FlightAware ADS-B
Sat 08:47:00 AM 53.9420 -9.7080 291° West 489 563 34,000  Level FlightAware ADS-B
Sat 08:47:35 AM 53.9710 -9.8340 291° West 489 563 34,000  Level FlightAware ADS-B
Sat 08:48:13 AM 54.0010 -9.9710 290° West 485 558 34,000  Level FlightAware ADS-B
Sat 08:48:58 AM 54.0360 -10.1260 291° West 484 557 34,000  Level FlightAware ADS-B
Sat 08:49:32 AM 54.0640 -10.2530 291° West 484 557 34,000  Level FlightAware ADS-B
Sat 08:50:08 AM 54.0920 -10.3790 291° West 484 557 34,000 171 Level FlightAware ADS-B
Sat 08:50:42 AM 54.1190 -10.5010 291° West 483 556 34,200 429 Climbing FlightAware ADS-B
Sat 08:51:18 AM 54.1460 -10.6250 290° West 486 559 34,500 507 Climbing FlightAware ADS-B
Sat 08:51:53 AM 54.1740 -10.7520 291° West 489 563 34,800 522 Climbing FlightAware ADS-B
Sat 08:52:27 AM 54.2020 -10.8810 290° West 488 562 35,100 514 Climbing FlightAware ADS-B
Sat 08:53:03 AM 54.2280 -11.0030 290° West 488 562 35,400 494 Climbing FlightAware ADS-B
Sat 08:53:52 AM 54.2670 -11.1860 290° West 487 560 35,800 429 Climbing FlightAware ADS-B
Sat 08:54:27 AM 54.2920 -11.3090 289° West 484 557 36,000 169 Climbing FlightAware ADS-B
Sat 08:55:03 AM 54.3180 -11.4290 290° West 484 557 36,000  Level FlightAware ADS-B
Sat 08:55:36 AM 54.3450 -11.5620 289° West 478 550 36,000  Level FlightAware ADS-B
Sat 08:56:12 AM 54.3710 -11.6870 290° West 477 549 36,000  Level FlightAware ADS-B
Sat 08:56:56 AM 54.4040 -11.8480 289° West 474 545 36,000  Level FlightAware ADS-B
Sat 08:57:31 AM 54.4300 -11.9720 290° West 473 544 36,000  Level FlightAware ADS-B
Sat 08:58:12 AM 54.4560 -12.0990 289° West 473 544 36,000  Level FlightAware ADS-B
Sat 08:59:03 AM 54.4930 -12.2820 289° West 473 544 36,000  Level FlightAware ADS-B
Sat 08:59:39 AM 54.5180 -12.4120 288° West 472 543 36,000  Level FlightAware ADS-B
Sat 09:00:15 AM 54.5380 -12.5220 287° West 472 543 36,000  Level FlightAware ADS-B
Sat 09:00:47 AM 54.5690 -12.6660 290° West 471 542 36,000  Level FlightAware ADS-B
Sat 09:01:21 AM 54.5930 -12.7890 289° West 471 542 36,000  Level FlightAware ADS-B
Sat 09:01:56 AM 54.6170 -12.9160 288° West 465 535 36,000  Level FlightAware ADS-B
Sat 09:02:34 AM 54.6400 -13.0340 289° West 460 529 36,000  Level FlightAware ADS-B
Sat 09:03:21 AM 54.6720 -13.1970 289° West 456 525 36,000  Level FlightAware ADS-B
Sat 09:03:54 AM 54.6930 -13.3100 288° West 454 522 36,000  Level FlightAware ADS-B
Sat 09:04:33 AM 54.7130 -13.4250 287° West 454 522 36,000  Level FlightAware ADS-B
Sat 09:05:07 AM 54.7310 -13.5250 287° West 454 522 36,000  Level FlightAware ADS-B
Sat 09:05:43 AM 54.7500 -13.6320 287° West 454 522 36,000  Level FlightAware ADS-B
Sat 09:06:19 AM 54.7690 -13.7380 287° West 454 522 36,000  Level FlightAware ADS-B
Sat 09:06:55 AM 54.7870 -13.8450 286° West 454 522 36,000  Level FlightAware ADS-B
Sat 09:07:31 AM 54.8060 -13.9520 287° West 454 522 36,000  Level FlightAware ADS-B
Sat 09:08:07 AM 54.8250 -14.0580 287° West 454 522 36,000  Level FlightAware ADS-B
Sat 09:08:44 AM 54.8440 -14.1680 287° West 454 522 36,000  Level FlightAware ADS-B
Sat 09:09:21 AM 54.8640 -14.2780 288° West 454 522 36,000  Level FlightAware ADS-B
Sat 09:09:57 AM 54.8820 -14.3850 286° West 454 522 36,000  Level FlightAware ADS-B
Sat 09:10:33 AM 54.9010 -14.4910 287° West 454 522 36,000  Level FlightAware ADS-B
Sat 09:11:09 AM 54.9200 -14.5980 287° West 454 522 36,000  Level FlightAware ADS-B
Sat 09:11:59 AM 54.9460 -14.7470 287° West 454 522 36,000  Level FlightAware ADS-B
Sat 09:12:36 AM 54.9650 -14.8570 287° West 454 522 36,000  Level FlightAware ADS-B
Sat 09:13:12 AM 54.9840 -14.9640 287° West 454 522 36,000  Level FlightAware ADS-B
Sat 09:13:48 AM 55.0030 -15.0710 287° West 454 522 36,000  Level FlightAware ADS-B
Sat 09:16:00 AM 55.1059 -15.5274 292° West  Level FlightAware Approximate
Sat 09:17:00 AM 55.1521 -15.7356 291° West  Level FlightAware Approximate
Sat 09:18:00 AM 55.1979 -15.9443 291° West  Level FlightAware Approximate
Sat 09:19:00 AM 55.2434 -16.1534 291° West  Level FlightAware Approximate
Sat 09:20:00 AM 55.2886 -16.3631 291° West  Level FlightAware Approximate
Sat 09:21:00 AM 55.3333 -16.5732 291° West  Level FlightAware Approximate
Sat 09:22:00 AM 55.3778 -16.7838 290° West  Level FlightAware Approximate
Sat 09:23:00 AM 55.4218 -16.9949 290° West  Level FlightAware Approximate
Sat 09:24:00 AM 55.4655 -17.2064 290° West  Level FlightAware Approximate
Sat 09:25:00 AM 55.5088 -17.4184 290° West  Level FlightAware Approximate
Sat 09:26:00 AM 55.5518 -17.6308 290° West  Level FlightAware Approximate
Sat 09:27:00 AM 55.5943 -17.8438 290° West  Level FlightAware Approximate
Sat 09:28:00 AM 55.6366 -18.0572 289° West  Level FlightAware Approximate
Sat 09:29:00 AM 55.6784 -18.2710 289° West  Level FlightAware Approximate
Sat 09:30:00 AM 55.7199 -18.4853 289° West  Level FlightAware Approximate
Sat 09:31:00 AM 55.7610 -18.7001 289° West  Level FlightAware Approximate
Sat 09:32:00 AM 55.8017 -18.9153 289° West  Level FlightAware Approximate
Sat 09:33:00 AM 55.8420 -19.1310 289° West  Level FlightAware Approximate
Sat 09:34:00 AM 55.8820 -19.3470 288° West  Level FlightAware Approximate
Sat 09:35:00 AM 55.9216 -19.5636 288° West  Level FlightAware Approximate
Sat 09:35:00 AM 56.0000 -20.0000 284° West 458 527 36,000  Level ETMS Enhanced Traffic Management System
Sat 09:36:00 AM 55.9608 -19.7806 288° West  Level FlightAware Approximate
Sat 09:37:00 AM 56.0004 -20.0028 284° West  Level FlightAware Approximate
Sat 09:38:00 AM 56.0309 -20.2246 284° West  Level FlightAware Approximate
Sat 09:39:00 AM 56.0611 -20.4467 284° West  Level FlightAware Approximate
Sat 09:40:00 AM 56.0908 -20.6692 284° West  Level FlightAware Approximate
Sat 09:41:00 AM 56.1831 -21.3299 283° West 458 527 36,000  Level FlightAware Transoceanic
Sat 09:42:00 AM 56.2123 -21.5528 283° West 458 527 36,000  Level FlightAware Transoceanic
Sat 09:43:00 AM 56.2410 -21.7760 283° West 458 527 36,000  Level FlightAware Transoceanic
Sat 09:44:00 AM 56.2693 -21.9995 283° West 458 527 36,000  Level FlightAware Transoceanic
Sat 09:45:00 AM 56.2972 -22.2234 283° West 458 527 36,000  Level FlightAware Transoceanic
Sat 09:46:00 AM 56.3247 -22.4476 282° West 458 527 36,000  Level FlightAware Transoceanic
Sat 09:47:00 AM 56.3518 -22.6721 282° West 458 527 36,000  Level FlightAware Transoceanic
Sat 09:48:00 AM 56.3786 -22.8969 282° West 458 527 36,000  Level FlightAware Transoceanic
Sat 09:49:00 AM 56.4049 -23.1220 282° West 458 527 36,000  Level FlightAware Transoceanic
Sat 09:50:00 AM 56.4307 -23.3475 282° West 458 527 36,000  Level FlightAware Transoceanic
Sat 09:51:00 AM 56.4562 -23.5732 281° West 458 527 36,000  Level FlightAware Transoceanic
Sat 09:52:00 AM 56.4813 -23.7993 281° West 458 527 36,000  Level FlightAware Transoceanic
Sat 09:53:00 AM 56.5060 -24.0256 281° West 458 527 36,000  Level FlightAware Transoceanic
Sat 09:54:00 AM 56.5302 -24.2523 281° West 458 527 36,000  Level FlightAware Transoceanic
Sat 09:55:00 AM 56.5540 -24.4792 281° West 458 527 36,000  Level FlightAware Transoceanic
Sat 09:56:00 AM 56.5774 -24.7064 281° West 458 527 36,000  Level FlightAware Transoceanic
Sat 09:57:00 AM 56.6004 -24.9339 280° West 458 527 36,000  Level FlightAware Transoceanic
Sat 09:58:00 AM 56.6230 -25.1617 280° West 458 527 36,000  Level FlightAware Transoceanic
Sat 09:59:00 AM 56.6452 -25.3897 280° West 458 527 36,000  Level FlightAware Transoceanic
Sat 10:00:00 AM 56.6670 -25.6180 280° West 458 527 36,000  Level FlightAware Transoceanic
Sat 10:01:00 AM 56.6883 -25.8466 280° West 458 527 36,000  Level FlightAware Transoceanic
Sat 10:02:00 AM 56.7092 -26.0754 279° West 458 527 36,000  Level FlightAware Transoceanic
Sat 10:03:00 AM 56.7297 -26.3045 279° West 458 527 36,000  Level FlightAware Transoceanic
Sat 10:04:00 AM 56.7498 -26.5338 279° West 458 527 36,000  Level FlightAware Transoceanic
Sat 10:05:00 AM 56.7695 -26.7633 279° West 458 527 36,000  Level FlightAware Transoceanic
Sat 10:06:00 AM 56.7887 -26.9932 279° West 458 527 36,000  Level FlightAware Transoceanic
Sat 10:07:00 AM 56.8075 -27.2232 278° West 458 527 36,000  Level FlightAware Transoceanic
Sat 10:08:00 AM 56.8259 -27.4534 278° West 458 527 36,000  Level FlightAware Transoceanic
Sat 10:09:00 AM 56.8438 -27.6839 278° West 458 527 36,000  Level FlightAware Transoceanic
Sat 10:10:00 AM 56.8614 -27.9146 278° West 458 527 36,000  Level FlightAware Transoceanic
Sat 10:11:00 AM 56.8785 -28.1456 278° West 458 527 36,000  Level FlightAware Transoceanic
Sat 10:12:00 AM 56.8952 -28.3767 277° West 458 527 36,000  Level FlightAware Transoceanic
Sat 10:13:00 AM 56.9114 -28.6080 277° West 458 527 36,000  Level FlightAware Transoceanic
Sat 10:14:00 AM 56.9273 -28.8395 277° West 458 527 36,000  Level FlightAware Transoceanic
Sat 10:15:00 AM 56.9427 -29.0713 277° West 458 527 36,000  Level FlightAware Transoceanic
Sat 10:16:00 AM 56.9576 -29.3032 277° West 458 527 36,000  Level FlightAware Transoceanic
Sat 10:17:00 AM 56.9722 -29.5353 276° West 458 527 36,000  Level FlightAware Transoceanic
Sat 10:18:00 AM 56.9863 -29.7675 276° West 458 527 36,000  Level FlightAware Transoceanic
Sat 10:19:00 AM 57.0000 -30.0006 276° West  Level FlightAware Approximate
Sat 10:20:00 AM 57.0000 -30.0012 274° West  Level FlightAware Approximate
Sat 10:21:00 AM 57.0092 -30.2351 274° West  Level FlightAware Approximate
Sat 10:22:00 AM 57.0179 -30.4691 274° West  Level FlightAware Approximate
Sat 10:23:00 AM 57.0259 -30.6979 274° West  Level FlightAware Approximate
Sat 10:24:00 AM 57.0336 -30.9268 274° West  Level FlightAware Approximate
Sat 10:25:00 AM 57.0408 -31.1558 273° West  Level FlightAware Approximate
Sat 10:26:00 AM 57.0476 -31.3849 273° West  Level FlightAware Approximate
Sat 10:27:00 AM 57.0540 -31.6140 273° West  Level FlightAware Approximate
Sat 10:28:00 AM 57.0600 -31.8433 273° West  Level FlightAware Approximate
Sat 10:29:00 AM 57.0656 -32.0726 273° West  Level FlightAware Approximate
Sat 10:30:00 AM 57.0707 -32.3020 272° West  Level FlightAware Approximate
Sat 10:31:00 AM 57.0754 -32.5314 272° West  Level FlightAware Approximate
Sat 10:32:00 AM 57.0797 -32.7609 272° West  Level FlightAware Approximate
Sat 10:33:00 AM 57.0836 -32.9905 272° West  Level FlightAware Approximate
Sat 10:34:00 AM 57.0871 -33.2201 272° West  Level FlightAware Approximate
Sat 10:35:00 AM 57.0901 -33.4497 271° West  Level FlightAware Approximate
Sat 10:36:00 AM 57.0928 -33.6794 271° West  Level FlightAware Approximate
Sat 10:37:00 AM 57.0950 -33.9091 271° West  Level FlightAware Approximate
Sat 10:38:00 AM 57.0967 -34.1388 271° West  Level FlightAware Approximate
Sat 10:38:00 AM 57.0000 -30.0000 274° West 445 512 36,000  Level ETMS Enhanced Traffic Management System
Sat 10:39:00 AM 57.0981 -34.3685 271° West  Level FlightAware Approximate
Sat 10:40:00 AM 57.0990 -34.5983 271° West  Level FlightAware Approximate
Sat 10:41:00 AM 57.0996 -34.8280 270° West  Level FlightAware Approximate
Sat 10:42:00 AM 57.0997 -35.0578 270° West  Level FlightAware Approximate
Sat 10:43:00 AM 57.0993 -35.2876 270° West  Level FlightAware Approximate
Sat 10:44:00 AM 57.0995 -35.2277 270° West 445 512 36,000  Level FlightAware Transoceanic
Sat 10:45:00 AM 57.0989 -35.4553 270° West 445 512 36,000  Level FlightAware Transoceanic
Sat 10:46:00 AM 57.0978 -35.6830 269° West 445 512 36,000  Level FlightAware Transoceanic
Sat 10:47:00 AM 57.0964 -35.9107 269° West 445 512 36,000  Level FlightAware Transoceanic
Sat 10:48:00 AM 57.0945 -36.1383 269° West 445 512 36,000  Level FlightAware Transoceanic
Sat 10:49:00 AM 57.0923 -36.3659 269° West 445 512 36,000  Level FlightAware Transoceanic
Sat 10:50:00 AM 57.0896 -36.5935 269° West 445 512 36,000  Level FlightAware Transoceanic
Sat 10:51:00 AM 57.0865 -36.8210 268° West 445 512 36,000  Level FlightAware Transoceanic
Sat 10:52:00 AM 57.0830 -37.0485 268° West 445 512 36,000  Level FlightAware Transoceanic
Sat 10:53:00 AM 57.0791 -37.2760 268° West 445 512 36,000  Level FlightAware Transoceanic
Sat 10:54:00 AM 57.0747 -37.5034 268° West 445 512 36,000  Level FlightAware Transoceanic
Sat 10:55:00 AM 57.0700 -37.7307 268° West 445 512 36,000  Level FlightAware Transoceanic
Sat 10:56:00 AM 57.0648 -37.9580 268° West 445 512 36,000  Level FlightAware Transoceanic
Sat 10:57:00 AM 57.0593 -38.1852 267° West 445 512 36,000  Level FlightAware Transoceanic
Sat 10:58:00 AM 57.0533 -38.4124 267° West 445 512 36,000  Level FlightAware Transoceanic
Sat 10:58:04 AM 57.0667 -38.0167 266° West 440 506 36,000  Level Gander Center
Sat 10:59:00 AM 57.0469 -38.6394 267° West 445 512 36,000  Level FlightAware Transoceanic
Sat 10:59:04 AM 57.0500 -38.2500 263° West 450 518 36,000  Level Gander Center
Sat 11:00:00 AM 57.0401 -38.8664 267° West 445 512 36,000  Level FlightAware Transoceanic
Sat 11:00:04 AM 57.0500 -38.4667 270° West 450 518 36,000  Level Gander Center
Sat 11:01:00 AM 57.0329 -39.0933 267° West 445 512 36,000  Level FlightAware Transoceanic
Sat 11:01:04 AM 57.0333 -38.7000 263° West 450 518 36,000  Level Gander Center
Sat 11:02:00 AM 57.0253 -39.3201 266° West 445 512 36,000  Level FlightAware Transoceanic
Sat 11:02:04 AM 57.0500 -38.9167 278° West 450 518 36,000  Level Gander Center
Sat 11:03:00 AM 57.0173 -39.5469 266° West 445 512 36,000  Level FlightAware Transoceanic
Sat 11:03:04 AM 57.0333 -39.1500 263° West 460 529 36,000  Level Gander Center
Sat 11:04:04 AM 57.0333 -39.4167 270° West 460 529 36,000  Level Gander Center
Sat 11:05:04 AM 57.0167 -39.6333 262° West 460 529 36,000  Level Gander Center
Sat 11:06:04 AM 57.0000 -39.8667 263° West 460 529 36,000  Level Gander Center
Sat 11:07:04 AM 56.9833 -40.1000 263° West 460 529 36,000  Level Gander Center
Sat 11:08:04 AM 56.9833 -40.3333 270° West 470 541 36,000  Level Gander Center
Sat 11:09:04 AM 56.9667 -40.5500 262° West 470 541 36,000  Level Gander Center
Sat 11:10:04 AM 56.9500 -40.7833 263° West 470 541 36,000  Level Gander Center
Sat 11:11:04 AM 56.9333 -41.0500 264° West 470 541 36,000  Level Gander Center
Sat 11:12:04 AM 56.9167 -41.2667 262° West 470 541 36,000  Level Gander Center
Sat 11:13:04 AM 56.9000 -41.5000 263° West 470 541 36,000  Level Gander Center
Sat 11:14:04 AM 56.9000 -41.7333 270° West 470 541 36,000  Level Gander Center
Sat 11:15:04 AM 56.8667 -41.9667 255° West 480 552 36,000  Level Gander Center
Sat 11:16:04 AM 56.8500 -42.2167 263° West 480 552 36,000  Level Gander Center
Sat 11:17:04 AM 56.8333 -42.4500 263° West 480 552 36,000  Level Gander Center
Sat 11:18:04 AM 56.8167 -42.6833 263° West 480 552 36,000  Level Gander Center
Sat 11:19:04 AM 56.8000 -42.9333 263° West 480 552 36,000  Level Gander Center
Sat 11:20:04 AM 56.7833 -43.1667 263° West 480 552 36,000  Level Gander Center
Sat 11:21:04 AM 56.7500 -43.4000 255° West 480 552 36,000  Level Gander Center
Sat 11:22:04 AM 56.7333 -43.6500 263° West 480 552 36,000  Level Gander Center
Sat 11:23:04 AM 56.7167 -43.8833 263° West 480 552 36,000  Level Gander Center
Sat 11:24:04 AM 56.7000 -44.1167 263° West 480 552 36,000  Level Gander Center
Sat 11:25:04 AM 56.6833 -44.3667 263° West 480 552 36,000  Level Gander Center
Sat 11:26:04 AM 56.6500 -44.5833 254° West 480 552 36,000  Level Gander Center
Sat 11:27:04 AM 56.6167 -44.8167 256° West 480 552 36,000  Level Gander Center
Sat 11:28:04 AM 56.6000 -45.0833 264° West 480 552 36,000  Level Gander Center
Sat 11:29:04 AM 56.5833 -45.3000 262° West 470 541 36,000  Level Gander Center
Sat 11:30:04 AM 56.5500 -45.5333 256° West 470 541 36,000  Level Gander Center
Sat 11:31:04 AM 56.5333 -45.7500 262° West 470 541 36,000  Level Gander Center
Sat 11:32:04 AM 56.5000 -45.9833 256° West 470 541 36,000  Level Gander Center
Sat 11:33:04 AM 56.4833 -46.2333 263° West 470 541 36,000  Level Gander Center
Sat 11:34:04 AM 56.4500 -46.4667 256° West 470 541 36,000  Level Gander Center
Sat 11:35:04 AM 56.4167 -46.6833 255° West 470 541 36,000  Level Gander Center
Sat 11:36:04 AM 56.4000 -46.9167 263° West 470 541 36,000  Level Gander Center
Sat 11:37:04 AM 56.3667 -47.1333 255° West 470 541 36,000  Level Gander Center
Sat 11:38:04 AM 56.3500 -47.3833 263° West 470 541 36,000  Level Gander Center
Sat 11:39:04 AM 56.3167 -47.6167 256° West 470 541 36,000  Level Gander Center
Sat 11:40:04 AM 56.3000 -47.8333 262° West 470 541 36,000  Level Gander Center
Sat 11:41:04 AM 56.2667 -48.0667 256° West 470 541 36,000  Level Gander Center
Sat 11:42:04 AM 56.2167 -48.2833 248° West 470 541 36,000  Level Gander Center
Sat 11:44:00 AM 56.1647 -48.7144 258° West  Level FlightAware Approximate
Sat 11:51:00 AM 55.9881 -50.2721 266° West  Level FlightAware Approximate
Sat 11:52:00 AM 55.9779 -50.4945 265° West  Level FlightAware Approximate
Sat 11:53:00 AM 55.9673 -50.7168 265° West  Level FlightAware Approximate
Sat 11:54:00 AM 55.9563 -50.9389 265° West  Level FlightAware Approximate
Sat 11:55:00 AM 55.9450 -51.1610 265° West  Level FlightAware Approximate
Sat 11:56:00 AM 55.9332 -51.3829 265° West  Level FlightAware Approximate
Sat 11:57:00 AM 55.9210 -51.6046 264° West  Level FlightAware Approximate
Sat 11:58:00 AM 55.9084 -51.8262 264° West  Level FlightAware Approximate
Sat 11:59:00 AM 55.8954 -52.0477 264° West  Level FlightAware Approximate
Sat 12:00:00 PM 55.8820 -52.2690 264° West  Level FlightAware Approximate
Sat 12:01:00 PM 55.8683 -52.4902 264° West  Level FlightAware Approximate
Sat 12:02:00 PM 55.8541 -52.7112 264° West  Level FlightAware Approximate
Sat 12:02:21 PM 55.8667 -52.9333 263° West 460 529 36,000  Level Gander Center
Sat 12:03:00 PM 55.8396 -52.9320 263° West  Level FlightAware Approximate
Sat 12:03:21 PM 55.8333 -53.1500 255° West 460 529 36,000  Level Gander Center
Sat 12:04:00 PM 55.8246 -53.1527 263° West  Level FlightAware Approximate
Sat 12:04:21 PM 55.8167 -53.4000 263° West 470 541 36,000  Level Gander Center
Sat 12:05:00 PM 55.8092 -53.3732 263° West  Level FlightAware Approximate
Sat 12:06:00 PM 55.7935 -53.5935 263° West  Level FlightAware Approximate
Sat 12:06:21 PM 55.8000 -53.8500 266° West 470 541 36,000  Level Gander Center
Sat 12:07:00 PM 55.7774 -53.8136 263° West  Level FlightAware Approximate
Sat 12:07:21 PM 55.7833 -54.0500 262° West 470 541 36,000  Level Gander Center
Sat 12:08:21 PM 55.7667 -54.3000 263° West 470 541 36,000  Level Gander Center
Sat 12:10:00 PM 55.7304 -54.6093 258° West  Level FlightAware Approximate
Sat 12:17:00 PM 55.5895 -56.1654 262° West  Level FlightAware Approximate
Sat 12:17:21 PM 55.5833 -56.3167 249° West 450 518 36,000  Level Gander Center
Sat 12:18:00 PM 55.5703 -56.3875 261° West  Level FlightAware Approximate
Sat 12:18:21 PM 55.5500 -56.5333 255° West 460 529 36,000  Level Gander Center
Sat 12:19:00 PM 55.5507 -56.6094 261° West  Level FlightAware Approximate
Sat 12:19:21 PM 55.5167 -56.7333 254° West 460 529 36,000  Level Gander Center
Sat 12:20:00 PM 55.5057 -56.8192 249° West  Level Estimated
Sat 12:20:21 PM 55.5000 -56.9500 262° West 460 529 36,000  Level Gander Center
Sat 12:21:00 PM 55.4604 -57.0286 249° West  Level Estimated
Sat 12:21:21 PM 55.4500 -57.1833 249° West 460 529 36,000  Level Gander Center
Sat 12:22:00 PM 55.4148 -57.2375 249° West  Level Estimated
Sat 12:22:21 PM 55.4000 -57.4000 248° West 460 529 36,000  Level Gander Center
Sat 12:23:21 PM 55.3833 -57.6000 262° West 460 529 36,000  Level Gander Center
Sat 12:24:21 PM 55.3333 -57.8167 248° West 460 529 36,000  Level Gander Center
Sat 12:25:21 PM 55.3000 -58.0500 256° West 460 529 36,000  Level Gander Center
Sat 12:26:21 PM 55.2667 -58.2667 255° West 460 529 36,000  Level Gander Center
Sat 12:27:21 PM 55.2167 -58.4667 246° West 460 529 36,000  Level Gander Center
Sat 12:28:21 PM 55.1833 -58.6833 255° West 460 529 36,000  Level Gander Center
Sat 12:29:21 PM 55.1500 -58.8833 254° West 460 529 36,000  Level Gander Center
Sat 12:30:21 PM 55.1000 -59.1167 250° West 460 529 36,000  Level Gander Center
Sat 12:31:21 PM 55.0667 -59.3333 255° West 450 518 36,000  Level Gander Center
Sat 12:32:21 PM 55.0167 -59.5333 247° West 450 518 36,000  Level Gander Center
Sat 12:33:21 PM 54.9833 -59.7333 254° West 450 518 36,000  Level Gander Center
Sat 12:34:21 PM 54.9500 -59.9500 255° West 440 506 36,000  Level Gander Center
Sat 12:35:21 PM 54.9167 -60.1500 254° West 440 506 36,000  Level Gander Center
Sat 12:36:21 PM 54.8667 -60.3500 247° West 440 506 36,000  Level Gander Center
Sat 12:37:21 PM 54.8333 -60.5333 253° West 440 506 36,000  Level Gander Center
Sat 12:38:21 PM 54.7833 -60.7667 250° West 440 506 36,000  Level Gander Center
Sat 12:39:21 PM 54.7333 -60.9333 243° Southwest 450 518 36,000  Level Gander Center
Sat 12:40:21 PM 54.7000 -61.1333 254° West 450 518 36,000  Level Gander Center
Sat 12:41:21 PM 54.6500 -61.3667 250° West 450 518 36,000  Level Gander Center
Sat 12:42:21 PM 54.6167 -61.5500 253° West 460 529 36,000  Level Gander Center
Sat 12:43:21 PM 54.5667 -61.7667 248° West 460 529 36,000  Level Gander Center
Sat 12:44:21 PM 54.5167 -61.9667 247° West 460 529 36,000  Level Gander Center
Sat 12:45:21 PM 54.4833 -62.1667 254° West 460 529 36,000  Level Gander Center
Sat 12:46:21 PM 54.4333 -62.3667 247° West 460 529 36,000  Level Gander Center
Sat 12:47:21 PM 54.3667 -62.6000 244° Southwest 460 529 36,000  Level Gander Center
Sat 12:48:21 PM 54.3333 -62.8000 254° West 460 529 36,000  Level Gander Center
Sat 12:49:21 PM 54.2833 -63.0000 247° West 470 541 36,000  Level Gander Center
Sat 12:50:21 PM 54.2333 -63.2000 247° West 470 541 36,000  Level Gander Center
Sat 12:51:21 PM 54.2000 -63.4000 254° West 460 529 36,000  Level Gander Center
Sat 12:52:21 PM 54.1500 -63.6167 249° West 460 529 36,000  Level Gander Center
Sat 12:53:21 PM 54.0833 -63.8167 240° Southwest 470 541 36,000  Level Gander Center
Sat 12:54:21 PM 54.0500 -64.0500 256° West 460 529 36,000  Level Gander Center
Sat 12:55:21 PM 54.0000 -64.2333 245° Southwest 460 529 36,000  Level Gander Center
Sat 12:56:21 PM 53.9333 -64.4333 241° Southwest 460 529 36,000  Level Gander Center
Sat 12:57:21 PM 53.9000 -64.6333 254° West 460 529 36,000  Level Gander Center
Sat 12:58:21 PM 53.8500 -64.8500 249° West 460 529 36,000  Level Gander Center
Sat 12:59:21 PM 53.8000 -65.0500 247° West 460 529 36,000  Level Gander Center
Sat 01:00:21 PM 53.7500 -65.2167 243° Southwest 460 529 36,000  Level Gander Center
Sat 01:01:21 PM 53.7000 -65.4333 249° West 450 518 36,000  Level Gander Center
Sat 01:02:11 PM 53.6667 -65.5333 241° Southwest 450 518 36,000  Level Montreal Center
Sat 01:03:11 PM 53.6167 -65.7500 249° West 450 518 36,000  Level Montreal Center
Sat 01:04:11 PM 53.5500 -65.9333 239° Southwest 460 529 36,000  Level Montreal Center
Sat 01:05:11 PM 53.5000 -66.1167 245° Southwest 450 518 36,000  Level Montreal Center
Sat 01:06:11 PM 53.4500 -66.3333 249° West 450 518 36,000  Level Montreal Center
Sat 01:07:11 PM 53.4000 -66.5167 245° Southwest 450 518 36,000  Level Montreal Center
Sat 01:08:11 PM 53.3500 -66.7000 246° West 450 518 36,000  Level Montreal Center
Sat 01:09:11 PM 53.3000 -66.9000 247° West 480 552 36,000  Level Montreal Center
Sat 01:10:11 PM 53.2500 -67.0833 246° West 460 529 36,000  Level Montreal Center
Sat 01:11:11 PM 53.1833 -67.3000 243° Southwest 460 529 36,000  Level Montreal Center
Sat 01:12:11 PM 53.1333 -67.5000 247° West 460 529 36,000  Level Montreal Center
Sat 01:13:11 PM 53.0833 -67.6833 246° West 450 518 36,000  Level Montreal Center
Sat 01:14:11 PM 53.0333 -67.8667 246° West 470 541 36,000  Level Montreal Center
Sat 01:15:11 PM 52.9500 -68.0667 235° Southwest 460 529 36,000  Level Montreal Center
Sat 01:16:11 PM 52.9167 -68.2500 253° West 450 518 36,000  Level Montreal Center
Sat 01:17:11 PM 52.8667 -68.4500 248° West 460 529 36,000  Level Montreal Center
Sat 01:18:11 PM 52.8167 -68.6333 246° West 460 529 36,000  Level Montreal Center
Sat 01:19:11 PM 52.7333 -68.8333 236° Southwest 460 529 36,000  Level Montreal Center
Sat 01:20:11 PM 52.6833 -69.0333 248° West 470 541 36,000  Level Montreal Center
Sat 01:21:11 PM 52.6167 -69.2167 239° Southwest 470 541 36,000  Level Montreal Center
Sat 01:22:11 PM 52.5667 -69.4167 248° West 470 541 36,000  Level Montreal Center
Sat 01:23:11 PM 52.5167 -69.6000 246° West 460 529 36,000  Level Montreal Center
Sat 01:24:11 PM 52.4500 -69.8000 241° Southwest 460 529 36,000  Level Montreal Center
Sat 01:25:11 PM 52.4000 -70.0000 248° West 460 529 36,000  Level Montreal Center
Sat 01:26:11 PM 52.3333 -70.1667 237° Southwest 460 529 36,000  Level Montreal Center
Sat 01:27:11 PM 52.2833 -70.3667 248° West 470 541 36,000  Level Montreal Center
Sat 01:28:11 PM 52.2000 -70.5500 233° Southwest 470 541 36,000  Level Montreal Center
Sat 01:29:11 PM 52.1500 -70.7500 248° West 480 552 36,000  Level Montreal Center
Sat 01:30:11 PM 52.0833 -70.9500 242° Southwest 480 552 36,000  Level Montreal Center
Sat 01:31:11 PM 52.0333 -71.1500 248° West 480 552 36,000  Level Montreal Center
Sat 01:32:11 PM 51.9667 -71.3500 242° Southwest 490 564 36,000  Level Montreal Center
Sat 01:33:11 PM 51.9000 -71.5167 237° Southwest 480 552 36,000  Level Montreal Center
Sat 01:34:11 PM 51.8333 -71.7333 244° Southwest 480 552 36,000  Level Montreal Center
Sat 01:35:11 PM 51.7667 -71.9167 240° Southwest 490 564 36,000  Level Montreal Center
Sat 01:36:11 PM 51.7167 -72.1000 246° West 490 564 36,000  Level Montreal Center
Sat 01:37:11 PM 51.6333 -72.3000 236° Southwest 490 564 36,000  Level Montreal Center
Sat 01:38:11 PM 51.5667 -72.5000 242° Southwest 490 564 36,000  Level Montreal Center
Sat 01:39:11 PM 51.5167 -72.7000 248° West 490 564 36,000  Level Montreal Center
Sat 01:40:11 PM 51.4333 -72.8833 234° Southwest 490 564 36,000  Level Montreal Center
Sat 01:41:11 PM 51.3667 -73.0833 242° Southwest 490 564 36,000  Level Montreal Center
Sat 01:42:11 PM 51.3000 -73.2667 240° Southwest 490 564 36,000  Level Montreal Center
Sat 01:43:11 PM 51.2333 -73.4667 242° Southwest 490 564 36,000  Level Montreal Center
Sat 01:44:11 PM 51.1667 -73.6500 240° Southwest 490 564 36,000  Level Montreal Center
Sat 01:45:11 PM 51.1000 -73.8500 242° Southwest 490 564 36,000  Level Montreal Center
Sat 01:46:11 PM 51.0333 -74.0333 240° Southwest 490 564 36,000  Level Montreal Center
Sat 01:47:11 PM 50.9500 -74.2333 237° Southwest 490 564 36,000  Level Montreal Center
Sat 01:48:11 PM 50.8833 -74.4167 240° Southwest 490 564 36,000  Level Montreal Center
Sat 01:49:11 PM 50.8167 -74.6000 240° Southwest 490 564 36,000  Level Montreal Center
Sat 01:50:11 PM 50.7500 -74.7667 238° Southwest 480 552 36,000  Level Montreal Center
Sat 01:51:11 PM 50.6833 -74.9500 240° Southwest 480 552 36,000  Level Montreal Center
Sat 01:52:11 PM 50.6167 -75.1500 242° Southwest 480 552 36,000  Level Montreal Center
Sat 01:53:11 PM 50.5500 -75.3333 240° Southwest 480 552 36,000  Level Montreal Center
Sat 01:54:11 PM 50.4833 -75.4833 235° Southwest 480 552 36,000  Level Montreal Center
Sat 01:55:11 PM 50.4000 -75.6833 237° Southwest 470 541 36,000  Level Montreal Center
Sat 01:56:11 PM 50.3333 -75.8667 240° Southwest 470 541 36,000  Level Montreal Center
Sat 01:57:11 PM 50.2667 -76.0500 240° Southwest 470 541 36,000  Level Montreal Center
Sat 01:58:11 PM 50.2000 -76.2000 235° Southwest 470 541 36,000  Level Montreal Center
Sat 01:59:11 PM 50.1333 -76.3833 240° Southwest 470 541 36,000  Level Montreal Center
Sat 02:00:11 PM 50.0500 -76.5667 235° Southwest 470 541 36,000  Level Montreal Center
Sat 02:01:11 PM 49.9833 -76.7167 235° Southwest 470 541 36,000  Level Montreal Center
Sat 02:02:11 PM 49.9000 -76.9000 235° Southwest 470 541 36,000  Level Montreal Center
Sat 02:03:11 PM 49.8333 -77.0833 241° Southwest 470 541 36,000  Level Montreal Center
Sat 02:04:11 PM 49.7667 -77.2667 241° Southwest 470 541 36,000  Level Montreal Center
Sat 02:05:11 PM 49.7000 -77.4167 236° Southwest 470 541 36,000  Level Montreal Center
Sat 02:06:11 PM 49.6333 -77.6000 241° Southwest 470 541 36,000  Level Montreal Center
Sat 02:07:11 PM 49.5500 -77.7833 235° Southwest 480 552 36,000  Level Montreal Center
Sat 02:08:11 PM 49.4667 -77.9667 235° Southwest 480 552 36,000 150 Level Montreal Center
Sat 02:09:11 PM 49.4000 -78.1167 236° Southwest 470 541 36,300 400 Climbing Montreal Center
Sat 02:10:11 PM 49.3333 -78.2833 239° Southwest 470 541 36,800 500 Climbing Montreal Center
Sat 02:11:11 PM 49.2500 -78.4667 235° Southwest 490 564 37,300 500 Climbing Montreal Center
Sat 02:12:11 PM 49.1833 -78.6167 236° Southwest 490 564 37,800 350 Climbing Montreal Center
Sat 02:13:11 PM 49.1167 -78.8167 243° Southwest 490 564 38,000 100 Climbing Montreal Center
Sat 02:14:11 PM 49.0333 -78.9667 230° Southwest 490 564 38,000  Level Montreal Center
Sat 02:14:42 PM 49.0000 -79.0167 225° Southwest 490 564 38,000  Level Toronto Center
Sat 02:15:42 PM 48.9167 -79.2000 235° Southwest 490 564 38,000  Level Toronto Center
Sat 02:16:42 PM 48.8333 -79.3833 235° Southwest 490 564 38,000  Level Toronto Center
Sat 02:17:42 PM 48.7667 -79.5500 239° Southwest 490 564 38,000  Level Toronto Center
Sat 02:18:42 PM 48.6833 -79.7000 230° Southwest 490 564 38,000  Level Toronto Center
Sat 02:19:42 PM 48.6167 -79.8500 236° Southwest 480 552 38,000  Level Toronto Center
Sat 02:25:01 PM 48.2020 -80.7840 236° Southwest 483 556 38,000  Level FlightAware ADS-B
Sat 02:25:50 PM 48.1440 -80.9050 234° Southwest 482 555 38,000  Level FlightAware ADS-B
Sat 02:26:26 PM 48.1040 -80.9880 234° Southwest 482 555 38,000  Level FlightAware ADS-B
Sat 02:27:03 PM 48.0630 -81.0730 234° Southwest 482 555 38,000  Level FlightAware ADS-B
Sat 02:27:37 PM 48.0250 -81.1510 234° Southwest 482 555 38,000  Level FlightAware ADS-B
Sat 02:28:13 PM 47.9850 -81.2330 234° Southwest 482 555 38,000  Level FlightAware ADS-B
Sat 02:28:47 PM 47.9470 -81.3110 234° Southwest 482 555 38,000  Level FlightAware ADS-B
Sat 02:29:23 PM 47.8620 -81.4920 235° Southwest 482 555 38,000  Level FlightAware ADS-B
Sat 02:29:59 PM 47.8160 -81.5860 234° Southwest 482 555 38,000  Level FlightAware ADS-B
Sat 02:30:30 PM 47.7750 -81.6690 234° Southwest 481 554 38,000  Level FlightAware ADS-B
Sat 02:31:09 PM 47.7230 -81.7740 234° Southwest 478 550 38,000  Level FlightAware ADS-B
Sat 02:31:44 PM 47.6840 -81.8520 233° Southwest 478 550 38,000  Level FlightAware ADS-B
Sat 02:32:23 PM 47.6220 -81.9570 229° Southwest 470 541 38,000  Level FlightAware ADS-B
Sat 02:33:00 PM 47.5600 -82.0360 221° Southwest 474 545 38,000  Level FlightAware ADS-B
Sat 02:33:36 PM 47.5000 -82.1100 220° Southwest 473 544 38,000  Level FlightAware ADS-B
Sat 02:34:15 PM 47.4370 -82.1870 220° Southwest 474 545 38,000  Level FlightAware ADS-B
Sat 02:34:52 PM 47.3730 -82.2640 219° Southwest 475 547 38,000  Level FlightAware ADS-B
Sat 02:35:23 PM 47.3220 -82.3270 220° Southwest 476 548 38,000  Level FlightAware ADS-B
Sat 02:36:02 PM 47.2550 -82.4080 219° Southwest 477 549 38,000  Level FlightAware ADS-B
Sat 02:36:38 PM 47.1940 -82.4830 220° Southwest 477 549 38,000  Level FlightAware ADS-B
Sat 02:37:08 PM 47.1430 -82.5450 220° Southwest 478 550 38,000  Level FlightAware ADS-B
Sat 02:37:48 PM 47.0750 -82.6270 219° Southwest 478 550 38,000  Level FlightAware ADS-B
Sat 02:38:15 PM 47.0270 -82.6850 219° Southwest 479 551 38,000  Level FlightAware ADS-B
Sat 02:38:58 PM 46.9540 -82.7720 219° Southwest 479 551 38,000  Level FlightAware ADS-B
Sat 02:39:34 PM 46.8910 -82.8470 219° Southwest 479 551 38,000  Level FlightAware ADS-B
Sat 02:40:02 PM 46.8440 -82.9030 219° Southwest 479 551 38,000  Level FlightAware ADS-B
Sat 02:40:39 PM 46.7810 -82.9780 219° Southwest 479 551 38,000  Level FlightAware ADS-B
Sat 02:41:17 PM 46.7140 -83.0570 219° Southwest 480 552 38,000  Level FlightAware ADS-B
Sat 02:41:51 PM 46.6550 -83.1270 219° Southwest 479 551 38,000  Level FlightAware ADS-B
Sat 02:42:27 PM 46.5950 -83.1980 219° Southwest 479 551 38,000  Level FlightAware ADS-B
Sat 02:43:03 PM 46.5340 -83.2700 219° Southwest 479 551 38,000  Level FlightAware ADS-B
Sat 02:43:38 PM 46.4720 -83.3420 219° Southwest 477 549 38,000  Level FlightAware ADS-B
Sat 02:44:10 PM 46.4200 -83.4030 219° Southwest 475 547 38,000  Level FlightAware ADS-B
Sat 02:44:46 PM 46.3570 -83.4770 219° Southwest 475 547 38,000  Level FlightAware ADS-B
Sat 02:45:19 PM 46.2980 -83.5400 216° Southwest 476 548 38,000  Level FlightAware ADS-B
Sat 02:45:55 PM 46.2300 -83.5990 211° Southwest 479 551 38,000  Level FlightAware ADS-B
Sat 02:46:33 PM 46.1540 -83.6530 206° Southwest 480 552 38,000  Level FlightAware ADS-B
Sat 02:47:08 PM 46.0830 -83.7010 205° Southwest 480 552 38,000  Level FlightAware ADS-B
Sat 02:47:40 PM 46.0190 -83.7430 205° Southwest 479 551 38,000  Level FlightAware ADS-B
Sat 02:48:12 PM 45.9540 -83.7860 205° Southwest 478 550 38,000  Level FlightAware ADS-B
Sat 02:48:52 PM 45.8750 -83.8380 205° Southwest 477 549 38,000  Level FlightAware ADS-B
Sat 02:49:28 PM 45.8020 -83.8870 205° Southwest 477 549 38,000  Level FlightAware ADS-B
Sat 02:50:00 PM 45.7380 -83.9280 204° Southwest 478 550 38,000  Level FlightAware ADS-B
Sat 02:50:35 PM 45.6680 -83.9740 205° Southwest 478 550 38,000  Level FlightAware ADS-B
Sat 02:51:13 PM 45.5930 -84.0230 205° Southwest 478 550 38,000  Level FlightAware ADS-B
Sat 02:51:45 PM 45.5280 -84.0650 204° Southwest 477 549 38,000  Level FlightAware ADS-B
Sat 02:52:23 PM 45.4520 -84.1140 204° Southwest 478 550 38,000  Level FlightAware ADS-B
Sat 02:52:53 PM 45.3930 -84.1520 204° Southwest 477 549 38,000  Level FlightAware ADS-B
Sat 02:53:40 PM 45.3090 -84.2060 204° Southwest 477 549 38,000  Level FlightAware ADS-B
Sat 02:54:11 PM 45.2350 -84.2550 205° Southwest 475 547 38,000  Level FlightAware ADS-B
Sat 02:54:50 PM 45.1620 -84.3010 204° Southwest 473 544 38,000  Level FlightAware ADS-B
Sat 02:55:23 PM 45.0920 -84.3460 204° Southwest 471 542 38,000  Level FlightAware ADS-B
Sat 02:55:57 PM 45.0310 -84.3850 204° Southwest 470 541 38,000  Level FlightAware ADS-B
Sat 02:56:33 PM 44.9540 -84.4340 204° Southwest 470 541 38,000  Level FlightAware ADS-B
Sat 02:57:09 PM 44.8850 -84.4780 204° Southwest 470 541 38,000  Level FlightAware ADS-B
Sat 02:57:41 PM 44.8210 -84.5180 204° Southwest 470 541 38,000  Level FlightAware ADS-B
Sat 02:58:27 PM 44.7270 -84.5770 204° Southwest 470 541 38,000  Level FlightAware ADS-B
Sat 02:58:59 PM 44.6660 -84.6160 204° Southwest 470 541 38,000  Level FlightAware ADS-B
Sat 02:59:36 PM 44.5930 -84.6620 204° Southwest 470 541 38,000  Level FlightAware ADS-B
Sat 03:00:11 PM 44.5200 -84.7070 204° Southwest 470 541 38,000  Level FlightAware ADS-B
Sat 03:00:43 PM 44.4570 -84.7470 204° Southwest 470 541 38,000  Level FlightAware ADS-B
Sat 03:01:20 PM 44.3820 -84.7930 204° Southwest 477 549 38,000  Level FlightAware ADS-B
Sat 03:01:56 PM 44.3100 -84.8380 204° Southwest 479 551 38,000  Level FlightAware ADS-B
Sat 03:02:31 PM 44.2390 -84.8820 204° Southwest 469 540 38,000  Level FlightAware ADS-B
Sat 03:03:04 PM 44.1740 -84.9220 204° Southwest 466 536 38,000  Level FlightAware ADS-B
Sat 03:03:39 PM 44.1050 -84.9640 204° Southwest 466 536 38,000  Level FlightAware ADS-B
Sat 03:04:15 PM 44.0340 -85.0080 204° Southwest 466 536 38,000 -696 Level FlightAware ADS-B
Sat 03:04:48 PM 43.9690 -85.0480 204° Southwest 461 531 37,200 -1,938 Descending FlightAware ADS-B
Sat 03:05:20 PM 43.9070 -85.0860 204° Southwest 464 534 35,900 -2,857 Descending FlightAware ADS-B
Sat 03:05:51 PM 43.8460 -85.1250 205° Southwest 473 544 34,200 -2,294 Descending FlightAware ADS-B
Sat 03:06:28 PM 43.7770 -85.1830 211° Southwest 466 536 33,300 -1,259 Descending FlightAware ADS-B
Sat 03:07:12 PM 43.7020 -85.2580 216° Southwest 456 525 32,500 -1,013 Descending FlightAware ADS-B
Sat 03:07:45 PM 43.6450 -85.3140 215° Southwest 447 514 32,000 -462 Descending FlightAware ADS-B
Sat 03:08:17 PM 43.5930 -85.3660 216° Southwest 446 513 32,000  Level FlightAware ADS-B
Sat 03:08:53 PM 43.5310 -85.4250 215° Southwest 448 516 32,000  Level FlightAware ADS-B
Sat 03:09:30 PM 43.4680 -85.4860 215° Southwest 447 514 32,000  Level FlightAware ADS-B
Sat 03:10:06 PM 43.4090 -85.5500 218° Southwest 448 516 32,000 -522 Level FlightAware ADS-B
Sat 03:10:39 PM 43.3630 -85.6150 226° Southwest 443 510 31,400 -1,385 Descending FlightAware ADS-B
Sat 03:10:58 PM 43.3390 -85.6570 232° Southwest 453 521 30,800 -2,060 Descending FlightAware ADS-B
Sat 03:11:46 PM 43.2760 -85.7630 231° Southwest 459 528 29,100 -2,096 Descending FlightAware ADS-B
Sat 03:12:21 PM 43.2280 -85.8450 231° Southwest 449 517 27,900 -1,941 Descending FlightAware ADS-B
Sat 03:12:54 PM 43.1850 -85.9160 230° Southwest 436 502 26,900 -1,800 Descending FlightAware ADS-B
Sat 03:13:31 PM 43.1390 -85.9930 231° Southwest 428 493 25,800 -1,784 Descending FlightAware ADS-B
Sat 03:14:08 PM 43.0920 -86.0720 231° Southwest 422 486 24,700 -1,690 Descending FlightAware ADS-B
Sat 03:14:42 PM 43.0500 -86.1420 231° Southwest 417 480 23,800 -1,629 Descending FlightAware ADS-B
Sat 03:15:18 PM 43.0070 -86.2130 230° Southwest 410 472 22,800 -1,676 Descending FlightAware ADS-B
Sat 03:15:50 PM 42.9700 -86.2760 231° Southwest 405 466 21,900 -1,765 Descending FlightAware ADS-B
Sat 03:16:26 PM 42.9280 -86.3450 230° Southwest 399 459 20,800 -1,833 Descending FlightAware ADS-B
Sat 03:17:02 PM 42.8850 -86.4150 230° Southwest 389 448 19,700 -1,886 Descending FlightAware ADS-B
Sat 03:17:36 PM 42.8460 -86.4790 230° Southwest 382 440 18,600 -1,846 Descending FlightAware ADS-B
Sat 03:18:07 PM 42.8110 -86.5360 230° Southwest 374 430 17,700 -1,714 Descending FlightAware ADS-B
Sat 03:18:46 PM 42.7700 -86.6030 230° Southwest 367 422 16,600 -1,760 Descending FlightAware ADS-B
Sat 03:19:22 PM 42.7310 -86.6670 230° Southwest 362 417 15,500 -1,750 Descending FlightAware ADS-B
Sat 03:19:58 PM 42.6950 -86.7300 232° Southwest 358 412 14,500 -1,775 Descending FlightAware ADS-B
Sat 03:20:33 PM 42.6640 -86.7950 237° Southwest 352 405 13,400 -1,826 Descending FlightAware ADS-B
Sat 03:21:07 PM 42.6320 -86.8620 237° Southwest 346 398 12,400 -1,565 Descending FlightAware ADS-B
Sat 03:21:42 PM 42.6010 -86.9230 235° Southwest 340 391 11,600 -1,304 Descending FlightAware ADS-B
Sat 03:22:16 PM 42.5710 -86.9810 235° Southwest 337 388 10,900 -1,235 Descending FlightAware ADS-B
Sat 03:22:50 PM 42.5410 -87.0390 235° Southwest 333 383 10,200 -964 Descending FlightAware ADS-B
Sat 03:23:12 PM 42.5220 -87.0770 236° Southwest 331 381 10,000 -308 Descending FlightAware ADS-B
Sat 03:23:29 PM 42.5080 -87.1050 236° Southwest 329 379 10,000  Level FlightAware ADS-B
Sat 03:23:46 PM 42.4920 -87.1360 235° Southwest 330 380 10,000  Level FlightAware ADS-B
Sat 03:23:59 PM 42.4810 -87.1580 236° Southwest 328 377 10,000  Level FlightAware ADS-B
Sat 03:24:24 PM 42.4600 -87.1990 235° Southwest 300 345 10,000  Level FlightAware ADS-B
Sat 03:24:44 PM 42.4450 -87.2290 236° Southwest 281 323 10,000 -375 Level FlightAware ADS-B
Sat 03:24:56 PM 42.4360 -87.2470 236° Southwest 276 318 9,800 -1,000 Descending FlightAware ADS-B
Sat 03:25:20 PM 42.4190 -87.2790 234° Southwest 268 308 9,400 -1,000 Descending FlightAware ADS-B
Sat 03:25:38 PM 42.4070 -87.3030 236° Southwest 265 305 9,100 -882 Descending FlightAware ADS-B
Sat 03:25:54 PM 42.3970 -87.3270 241° Southwest 267 307 8,900 -789 Descending FlightAware ADS-B
Sat 03:26:16 PM 42.3870 -87.3620 249° West 266 306 8,600 -1,059 Descending FlightAware ADS-B
Sat 03:26:28 PM 42.3820 -87.3810 250° West 265 305 8,300 -1,412 Descending FlightAware ADS-B
Sat 03:26:50 PM 42.3730 -87.4140 250° West 264 304 7,800 -1,364 Descending FlightAware ADS-B
Sat 03:27:12 PM 42.3630 -87.4490 249° West 264 304 7,300 -1,263 Descending FlightAware ADS-B
Sat 03:27:28 PM 42.3570 -87.4710 250° West 262 302 7,000 -529 Descending FlightAware ADS-B
Sat 03:27:46 PM 42.3490 -87.5000 250° West 243 280 7,000  Level FlightAware ADS-B
Sat 03:27:54 PM 42.3440 -87.5100 236° Southwest 232 267 7,000  Level FlightAware ADS-B
Sat 03:28:08 PM 42.3340 -87.5230 224° Southwest 220 253 7,000  Level FlightAware ADS-B
Sat 03:28:28 PM 42.3190 -87.5400 220° Southwest 212 244 7,000  Level FlightAware ADS-B
Sat 03:28:44 PM 42.3080 -87.5530 221° Southwest 209 241 7,000  Level FlightAware ADS-B
Sat 03:29:04 PM 42.2920 -87.5700 218° Southwest 206 237 7,000  Level FlightAware ADS-B
Sat 03:29:24 PM 42.2770 -87.5860 218° Southwest 207 238 7,000  Level FlightAware ADS-B
Sat 03:29:38 PM 42.2670 -87.5970 219° Southwest 208 239 7,000  Level FlightAware ADS-B
Sat 03:29:56 PM 42.2540 -87.6120 221° Southwest 205 236 7,000 -150 Level FlightAware ADS-B
Sat 03:30:18 PM 42.2380 -87.6300 220° Southwest 195 224 6,900 -789 Descending FlightAware ADS-B
Sat 03:30:34 PM 42.2260 -87.6430 219° Southwest 194 223 6,500 -1,333 Descending FlightAware ADS-B
Sat 03:30:54 PM 42.2130 -87.6580 221° Southwest 198 228 6,100 -1,235 Descending FlightAware ADS-B
Sat 03:31:08 PM 42.2030 -87.6690 219° Southwest 205 236 5,800 -909 Descending FlightAware ADS-B
Sat 03:31:27 PM 42.1890 -87.6850 220° Southwest 210 242 5,600 -837 Descending FlightAware ADS-B
Sat 03:31:51 PM 42.1700 -87.7050 218° Southwest 203 234 5,200 -1,105 Descending FlightAware ADS-B
Sat 03:32:05 PM 42.1600 -87.7160 219° Southwest 203 234 4,900 -1,412 Descending FlightAware ADS-B
Sat 03:32:25 PM 42.1460 -87.7330 222° Southwest 209 241 4,400 -1,050 Descending FlightAware ADS-B
Sat 03:32:45 PM 42.1310 -87.7490 218° Southwest 201 231 4,200 -545 Descending FlightAware ADS-B
Sat 03:33:09 PM 42.1150 -87.7670 220° Southwest 180 207 4,000 -500 Descending FlightAware ADS-B
Sat 03:33:21 PM 42.1080 -87.7750 220° Southwest 170 196 3,900 -750 Descending FlightAware ADS-B
Sat 03:33:41 PM 42.0960 -87.7880 219° Southwest 158 182 3,600 -1,000 Descending FlightAware ADS-B
Sat 03:33:57 PM 42.0870 -87.7990 222° Southwest 158 182 3,300 -811 Descending FlightAware ADS-B
Sat 03:34:18 PM 42.0770 -87.8110 222° Southwest 143 165 3,100 -878 Descending FlightAware ADS-B
Sat 03:34:38 PM 42.0660 -87.8220 217° Southwest 149 171 2,700 -1,227 Descending FlightAware ADS-B
Sat 03:35:02 PM 42.0550 -87.8340 219° Southwest 136 157 2,200 -1,171 Descending FlightAware ADS-B
Sat 03:35:19 PM 42.0460 -87.8430 217° Southwest 132 152 1,900 -923 Descending FlightAware ADS-B
Sat 03:35:41 PM 42.0340 -87.8560 219° Southwest 143 165 1,600 -833 Descending FlightAware ADS-B
Sat 03:35:55 PM 42.0270 -87.8640 220° Southwest 138 159 1,400 -833 Descending FlightAware ADS-B
Sat 03:36:17 PM 42.0160 -87.8760 219° Southwest 132 152 1,100 -632 Descending FlightAware ADS-B
Sat 03:36:33 PM 42.0100 -87.8830 221° Southwest 131 151 1,000 -667 Descending FlightAware ADS-B
Sat 03:36:53 PM 42.0000 -87.8940 219° Southwest 133 153 700 -750 Descending FlightAware ADS-B
Sat 03:37:05 PM 41.9930 -87.9010 217° Southwest 132 152 600 -500 Descending FlightAware ADS-B

Login

Don't have an account? Register now (free) for customized features, flight alerts, and more!